createdAt,value
2023-01-09T00:02:12.966Z,66.85814
2023-01-09T00:17:15.392Z,20.71661
2023-01-09T00:32:17.699Z,2.82499
2023-01-09T00:47:19.911Z,0
2023-01-09T01:02:22.395Z,0.94166
2023-01-09T01:17:25.122Z,0
2023-01-09T01:32:27.488Z,0.94166
2023-01-09T01:47:29.905Z,0.94166
2023-01-09T02:02:32.584Z,0
2023-01-09T02:17:34.991Z,0
2023-01-09T02:32:37.379Z,0.94166
2023-01-09T02:47:39.736Z,0.94166
2023-01-09T03:02:42.176Z,0.94166
2023-01-09T03:17:44.642Z,0.94166
2023-01-09T03:32:46.947Z,0.94166
2023-01-09T03:47:49.723Z,0.94166
2023-01-09T04:02:53.536Z,0.94166
2023-01-09T04:17:55.869Z,0.94166
2023-01-09T04:32:58.268Z,0.94166
2023-01-09T04:48:00.930Z,0.94166
2023-01-09T05:03:03.220Z,0.94166
2023-01-09T05:18:05.525Z,0.94166
2023-01-09T05:33:07.912Z,0.94166
2023-01-09T05:48:10.328Z,0.94166
2023-01-09T06:03:12.696Z,0
2023-01-09T06:18:15.346Z,0.94166
2023-01-09T06:33:17.672Z,0
2023-01-09T06:48:20.047Z,0.94166
2023-01-09T07:03:22.394Z,0.94166
2023-01-09T07:18:24.815Z,0.94166
2023-01-09T07:33:27.146Z,0.94166
2023-01-09T07:48:29.720Z,0.94166
2023-01-09T08:03:32.213Z,0.94166
2023-01-09T08:18:34.506Z,0.94166
2023-01-09T08:33:37.739Z,0.94166
2023-01-09T08:48:41.025Z,0.94166
2023-01-09T09:03:43.363Z,0.94166
2023-01-09T09:18:45.631Z,0.94166
2023-01-09T09:33:47.960Z,0.94166
2023-01-09T09:48:50.262Z,0.94166
2023-01-09T10:03:52.691Z,0.94166
2023-01-09T10:18:55.088Z,0.94166
2023-01-09T10:33:57.453Z,0.94166
2023-01-09T10:48:59.735Z,0
2023-01-09T11:04:02.143Z,0
2023-01-09T11:19:04.557Z,0.94166
2023-01-09T11:34:06.823Z,0.94166
2023-01-09T11:49:09.167Z,0.94166
2023-01-09T12:04:11.570Z,0.94166
2023-01-09T12:19:15.298Z,0.94166
2023-01-09T12:34:17.625Z,0.94166
2023-01-09T12:49:19.890Z,0.94166
2023-01-09T13:04:22.200Z,0.94166
2023-01-09T13:19:24.558Z,0.94166
2023-01-09T13:34:26.995Z,0.94166
2023-01-09T13:49:29.321Z,0.94166
2023-01-09T14:04:31.588Z,0.94166
2023-01-09T14:19:33.950Z,0.94166
2023-01-09T14:34:36.304Z,0
2023-01-09T14:49:38.610Z,0
2023-01-09T15:04:40.968Z,0
2023-01-09T15:19:43.359Z,1.88333
2023-01-09T15:34:45.670Z,18.83328
2023-01-09T15:49:47.969Z,101.69971
2023-01-09T16:04:50.328Z,367.24893
2023-01-09T16:19:52.834Z,802.29767
2023-01-09T16:34:55.130Z,1614.01196
2023-01-09T16:49:57.477Z,2459.62622
2023-01-09T17:04:59.828Z,4030.32153
2023-01-09T17:20:02.132Z,4392.8623
2023-01-09T17:35:04.486Z,6521.96436
2023-01-09T17:50:06.869Z,5243.18457
2023-01-09T18:05:09.351Z,7882.66846
2023-01-09T18:20:11.679Z,10100.28711
2023-01-09T18:35:14.115Z,8172.70117
2023-01-09T18:50:16.709Z,11379.06641
2023-01-09T19:05:19.094Z,5204.57666
2023-01-09T19:20:21.340Z,5625.50049
2023-01-09T19:35:23.776Z,6699.93896
2023-01-09T19:50:26.264Z,5798.7666
2023-01-09T20:05:28.853Z,4914.54395
2023-01-09T20:20:31.183Z,4133.90479
2023-01-09T20:35:33.558Z,3836.33887
2023-01-09T20:50:35.982Z,3521.823
2023-01-09T21:05:38.323Z,3443.66504
2023-01-09T21:20:40.712Z,2809.92505
2023-01-09T21:35:43.050Z,2375.81812
2023-01-09T21:50:45.420Z,1739.2533
2023-01-09T22:05:47.734Z,1372.94604
2023-01-09T22:20:49.980Z,884.22241
2023-01-09T22:35:52.314Z,636.56482
2023-01-09T22:50:54.705Z,588.53998
2023-01-09T23:05:56.976Z,518.85681
2023-01-09T23:20:59.453Z,446.34869
2023-01-09T23:36:01.802Z,159.1412
2023-01-09T23:51:04.097Z,163.84952
